Oosterbeek, Netherlands
Current Conditions -  °F | °C
As of 4:55 PM on Sunday 23 Nov 2014 (Local Time) from EHDL Reporting Station
Overcast Overcast  
Wind Chill: 52°   Ceiling: 18000
Heat Index: 52°   Visibility: 6mi
Dew Point: 48°   Wind: 6mph
Humidity: 88%   Direction: 140°SE
Pressure: 29.94"   Gusts: NA
Location:  51.99°N, 5.85°E
Report Text: EHDL 231555Z AUTO 14005KT 9999 FEW120 OVC180 11/09 Q1014 BLU
Loading
Personal Weather Stations






























Interactive Weather Map New forecast layout! Learn more

10-Day Weather Forecast

Advertisements
Track Severe Weather on mobile